Time;durP1;ratioP1;P1;durP2;ratioP2;P2;SDS_P1;SDS_P2;PMS_P1;PMS_P2;Temp;Humidity;BMP_temperature;BMP_pressure;BME280_temperature;BME280_humidity;BME280_pressure;Samples;Min_cycle;Max_cycle;Signal;HPM_P1;HPM_P2
2022/11/10 00:00:23;;;;;;;3.60;3.30;;;;;;;;;;5072135;28;20936;-76
2022/11/10 00:02:50;;;;;;;3.13;2.93;;;;;;;;;;5071556;28;20481;-75
2022/11/10 00:05:17;;;;;;;3.57;3.27;;;;;;;;;;5074882;28;20447;-75
2022/11/10 00:07:45;;;;;;;3.20;3.00;;;;;;;;;;5072965;28;20448;-75
2022/11/10 00:10:14;;;;;;;2.97;2.77;;;;;;;;;;5073045;28;20992;-75
2022/11/10 00:12:41;;;;;;;3.30;2.80;;;;;;;;;;5073293;28;20774;-75
2022/11/10 00:17:55;;;;;;;3.70;3.40;;;;;;;;;;5071790;28;20539;-75
2022/11/10 00:20:22;;;;;;;3.63;3.43;;;;;;;;;;5071971;28;20504;-75
2022/11/10 00:22:50;;;;;;;3.10;2.80;;;;;;;;;;5071208;28;20472;-76
2022/11/10 00:25:17;;;;;;;4.53;3.20;;;;;;;;;;5071600;28;20797;-75
2022/11/10 00:27:44;;;;;;;4.33;3.23;;;;;;;;;;5071199;28;20452;-75
2022/11/10 00:30:12;;;;;;;3.87;2.97;;;;;;;;;;5070543;28;20461;-75
2022/11/10 00:32:39;;;;;;;3.30;2.80;;;;;;;;;;5068299;28;20463;-76
2022/11/10 00:35:07;;;;;;;3.47;2.80;;;;;;;;;;5062408;28;20976;-76
2022/11/10 00:37:34;;;;;;;4.20;2.53;;;;;;;;;;5070766;28;20925;-76
2022/11/10 00:40:03;;;;;;;5.53;2.60;;;;;;;;;;5070680;28;20663;-75
2022/11/10 00:42:30;;;;;;;6.17;3.10;;;;;;;;;;5070969;28;20475;-75
2022/11/10 00:44:57;;;;;;;2.97;2.63;;;;;;;;;;5070719;28;20441;-75
2022/11/10 00:47:24;;;;;;;3.27;2.70;;;;;;;;;;5070843;28;20448;-75
2022/11/10 00:49:51;;;;;;;6.20;3.70;;;;;;;;;;5070410;28;20448;-75
2022/11/10 00:52:18;;;;;;;4.07;2.53;;;;;;;;;;5070944;28;20490;-75
2022/11/10 00:54:45;;;;;;;4.80;2.60;;;;;;;;;;5070778;28;20937;-74
2022/11/10 00:57:14;;;;;;;9.50;2.33;;;;;;;;;;5070829;28;20436;-76
2022/11/10 00:59:41;;;;;;;3.10;2.80;;;;;;;;;;5070941;28;20810;-75
2022/11/10 01:02:08;;;;;;;5.43;2.43;;;;;;;;;;5071425;28;20865;-74
2022/11/10 01:04:35;;;;;;;2.77;2.47;;;;;;;;;;5071123;28;20531;-75
2022/11/10 01:07:02;;;;;;;7.13;2.57;;;;;;;;;;5070650;28;20931;-76
2022/11/10 01:09:29;;;;;;;3.70;2.53;;;;;;;;;;5070886;28;20954;-74
2022/11/10 01:11:56;;;;;;;10.43;2.50;;;;;;;;;;5071089;28;20476;-76
2022/11/10 01:14:25;;;;;;;3.40;2.60;;;;;;;;;;5070409;28;20932;-76
2022/11/10 01:16:52;;;;;;;3.00;2.67;;;;;;;;;;5070742;28;20451;-75
2022/11/10 01:19:19;;;;;;;8.07;2.93;;;;;;;;;;5070602;28;20555;-76
2022/11/10 01:21:46;;;;;;;8.53;3.23;;;;;;;;;;5070785;28;20433;-75
2022/11/10 01:24:13;;;;;;;7.87;2.80;;;;;;;;;;5071060;28;20476;-76
2022/11/10 01:26:40;;;;;;;4.73;2.97;;;;;;;;;;5072519;28;20444;-75
2022/11/10 01:29:07;;;;;;;2.93;2.47;;;;;;;;;;5073194;28;20437;-74
2022/11/10 01:31:35;;;;;;;3.67;3.23;;;;;;;;;;5071775;28;20481;-74
2022/11/10 01:34:03;;;;;;;3.50;2.50;;;;;;;;;;5070881;28;20541;-76
2022/11/10 01:36:30;;;;;;;8.20;2.93;;;;;;;;;;5070595;28;20961;-75
2022/11/10 01:38:57;;;;;;;7.73;2.70;;;;;;;;;;5069947;28;20448;-75
2022/11/10 01:41:24;;;;;;;4.60;2.57;;;;;;;;;;5069767;28;20956;-75
2022/11/10 01:43:51;;;;;;;4.73;3.37;;;;;;;;;;5069971;28;20967;-76
2022/11/10 01:46:18;;;;;;;4.40;2.30;;;;;;;;;;5069697;28;20955;-75
2022/11/10 01:48:47;;;;;;;5.30;2.97;;;;;;;;;;5070100;28;20940;-76
2022/11/10 01:51:17;;;;;;;3.70;2.77;;;;;;;;;;5070191;28;20995;-75
2022/11/10 01:53:45;;;;;;;2.70;2.27;;;;;;;;;;5070278;28;20468;-75
2022/11/10 01:56:13;;;;;;;5.50;2.70;;;;;;;;;;5070536;28;20789;-75
2022/11/10 01:58:42;;;;;;;2.63;2.43;;;;;;;;;;5069964;28;20449;-75
2022/11/10 02:01:10;;;;;;;7.93;2.97;;;;;;;;;;5071583;28;20437;-75
2022/11/10 02:03:40;;;;;;;5.37;3.10;;;;;;;;;;5073829;28;20464;-75
2022/11/10 02:06:09;;;;;;;8.60;3.10;;;;;;;;;;5073975;28;20432;-76
2022/11/10 02:08:37;;;;;;;4.30;3.13;;;;;;;;;;5073741;28;20450;-75
2022/11/10 02:11:04;;;;;;;5.10;3.20;;;;;;;;;;5073849;28;20503;-75
2022/11/10 02:13:31;;;;;;;4.00;2.93;;;;;;;;;;5073285;28;20468;-75
2022/11/10 02:15:59;;;;;;;4.63;3.30;;;;;;;;;;5073501;28;20444;-75
2022/11/10 02:18:26;;;;;;;5.30;2.63;;;;;;;;;;5074417;28;20884;-74
2022/11/10 02:20:54;;;;;;;6.27;2.90;;;;;;;;;;5074223;28;20443;-75
2022/11/10 02:23:40;;;;;;;5.23;3.17;;;;;;;;;;5073050;28;20472;-76
2022/11/10 02:26:07;;;;;;;11.27;3.73;;;;;;;;;;5073722;28;20448;-75
2022/11/10 02:28:35;;;;;;;4.27;3.10;;;;;;;;;;5076422;28;20444;-75
2022/11/10 02:31:02;;;;;;;8.77;3.50;;;;;;;;;;5073188;28;20476;-76
2022/11/10 02:33:30;;;;;;;4.43;2.93;;;;;;;;;;5072730;28;20465;-76
2022/11/10 02:35:58;;;;;;;4.63;3.47;;;;;;;;;;5073591;28;20448;-75
2022/11/10 02:38:25;;;;;;;4.17;3.00;;;;;;;;;;5072914;28;20441;-74
2022/11/10 02:40:52;;;;;;;4.40;2.33;;;;;;;;;;5073206;28;20436;-75
2022/11/10 02:43:20;;;;;;;4.43;3.10;;;;;;;;;;5072839;28;20547;-74
2022/11/10 02:45:47;;;;;;;6.33;2.80;;;;;;;;;;5073037;28;20474;-75
2022/11/10 02:48:15;;;;;;;5.33;3.10;;;;;;;;;;5074848;28;20448;-75
2022/11/10 02:50:42;;;;;;;5.03;2.97;;;;;;;;;;5073880;28;20451;-75
2022/11/10 02:53:10;;;;;;;5.63;2.80;;;;;;;;;;5072448;28;20971;-75
2022/11/10 02:55:37;;;;;;;5.43;3.50;;;;;;;;;;5072775;28;20436;-74
2022/11/10 02:58:05;;;;;;;7.03;3.03;;;;;;;;;;5073031;28;20436;-75
2022/11/10 03:00:32;;;;;;;5.40;3.33;;;;;;;;;;5072829;28;20821;-75
2022/11/10 03:03:00;;;;;;;9.40;3.40;;;;;;;;;;5073656;28;21030;-76
2022/11/10 03:05:27;;;;;;;6.93;3.40;;;;;;;;;;5073833;28;20932;-75
2022/11/10 03:07:55;;;;;;;5.07;3.10;;;;;;;;;;5073505;28;20444;-74
2022/11/10 03:10:23;;;;;;;9.43;3.40;;;;;;;;;;5074200;28;20449;-75
2022/11/10 03:12:54;;;;;;;8.20;3.17;;;;;;;;;;5072651;28;20507;-75
2022/11/10 03:15:21;;;;;;;5.17;2.97;;;;;;;;;;5072419;28;20785;-74
2022/11/10 03:17:48;;;;;;;6.07;4.53;;;;;;;;;;5072652;28;20444;-75
2022/11/10 03:20:16;;;;;;;7.63;3.60;;;;;;;;;;5072567;28;20445;-76
2022/11/10 03:22:43;;;;;;;5.70;3.40;;;;;;;;;;5071456;28;20461;-75
2022/11/10 03:25:10;;;;;;;4.60;3.60;;;;;;;;;;5072392;28;20425;-75
2022/11/10 03:27:39;;;;;;;5.23;3.60;;;;;;;;;;5071947;28;20437;-75
2022/11/10 03:30:07;;;;;;;4.90;3.17;;;;;;;;;;5072081;28;20921;-76
2022/11/10 03:32:34;;;;;;;4.00;3.30;;;;;;;;;;5071496;28;20995;-74
2022/11/10 03:35:01;;;;;;;7.33;3.73;;;;;;;;;;5072060;28;20839;-75
2022/11/10 03:37:28;;;;;;;6.07;3.40;;;;;;;;;;5071796;28;20441;-75
2022/11/10 03:39:55;;;;;;;4.43;3.77;;;;;;;;;;5072283;28;20440;-75
2022/11/10 03:42:22;;;;;;;3.77;3.23;;;;;;;;;;5071944;28;20457;-75
2022/11/10 03:44:50;;;;;;;4.60;2.83;;;;;;;;;;5071403;28;20448;-76
2022/11/10 03:47:18;;;;;;;7.10;4.00;;;;;;;;;;5071953;28;20449;-75
2022/11/10 03:49:45;;;;;;;11.63;4.43;;;;;;;;;;5071765;28;20441;-75
2022/11/10 03:52:12;;;;;;;6.17;3.30;;;;;;;;;;5071650;28;20481;-78
2022/11/10 03:54:39;;;;;;;4.83;3.40;;;;;;;;;;5071358;28;20451;-75
2022/11/10 03:57:06;;;;;;;5.13;3.53;;;;;;;;;;5071406;28;20975;-75
2022/11/10 03:59:33;;;;;;;4.00;3.17;;;;;;;;;;5071366;28;20452;-75
2022/11/10 04:02:01;;;;;;;3.90;3.37;;;;;;;;;;5071200;28;20932;-75
2022/11/10 04:09:58;;;;;;;6.07;3.70;;;;;;;;;;5071755;28;20891;-75
2022/11/10 04:18:19;;;;;;;3.77;3.43;;;;;;;;;;5071195;28;20424;-75
2022/11/10 04:20:44;;;;;;;4.20;3.80;;;;;;;;;;5070844;28;20925;-75
2022/11/10 04:23:27;;;;;;;6.47;3.40;;;;;;;;;;5070705;28;20469;-75
2022/11/10 04:28:51;;;;;;;5.93;3.40;;;;;;;;;;5070954;28;20416;-76
2022/11/10 04:31:18;;;;;;;6.03;4.17;;;;;;;;;;5071196;28;20440;-75
2022/11/10 04:33:47;;;;;;;4.37;2.93;;;;;;;;;;5070821;28;20469;-75
2022/11/10 04:36:16;;;;;;;6.30;3.60;;;;;;;;;;5071165;28;20463;-75
2022/11/10 04:38:43;;;;;;;7.03;3.23;;;;;;;;;;5070982;28;20441;-76
2022/11/10 04:41:10;;;;;;;11.47;3.57;;;;;;;;;;5070784;28;20455;-75
2022/11/10 04:43:37;;;;;;;4.20;2.90;;;;;;;;;;5071226;28;20465;-75
2022/11/10 04:46:05;;;;;;;12.77;3.93;;;;;;;;;;5070757;28;20960;-75
2022/11/10 04:48:32;;;;;;;9.10;3.80;;;;;;;;;;5070399;28;20445;-75
2022/11/10 04:51:05;;;;;;;6.60;3.70;;;;;;;;;;5070580;28;20826;-75
2022/11/10 04:53:32;;;;;;;6.00;3.63;;;;;;;;;;5072196;28;21174;-75
2022/11/10 04:55:59;;;;;;;8.53;3.73;;;;;;;;;;5072569;28;20932;-74
2022/11/10 04:58:26;;;;;;;7.00;3.30;;;;;;;;;;5071326;28;20440;-75
2022/11/10 05:00:53;;;;;;;7.33;4.10;;;;;;;;;;5071273;28;20444;-75
2022/11/10 05:03:20;;;;;;;6.93;4.00;;;;;;;;;;5070856;28;20457;-75
2022/11/10 05:05:48;;;;;;;6.00;3.50;;;;;;;;;;5072211;28;20448;-75
2022/11/10 05:08:16;;;;;;;7.03;4.03;;;;;;;;;;5073402;28;20440;-75
2022/11/10 05:10:44;;;;;;;5.23;3.90;;;;;;;;;;5074271;28;20440;-75
2022/11/10 05:13:11;;;;;;;5.63;5.03;;;;;;;;;;5072700;28;20485;-75
2022/11/10 05:15:40;;;;;;;5.40;4.10;;;;;;;;;;5072374;28;20497;-75
2022/11/10 05:18:07;;;;;;;4.57;4.13;;;;;;;;;;5073486;28;20865;-74
2022/11/10 05:20:34;;;;;;;6.70;3.80;;;;;;;;;;5070640;28;20441;-75
2022/11/10 05:25:47;;;;;;;9.13;3.87;;;;;;;;;;5070501;28;20421;-74
2022/11/10 05:28:15;;;;;;;4.43;4.03;;;;;;;;;;5070617;28;20452;-76
2022/11/10 05:30:42;;;;;;;6.13;3.53;;;;;;;;;;5070342;28;20937;-76
2022/11/10 05:33:09;;;;;;;4.43;3.27;;;;;;;;;;5070248;28;20488;-76
2022/11/10 05:35:37;;;;;;;4.53;3.83;;;;;;;;;;5070124;28;20449;-76
2022/11/10 05:38:04;;;;;;;5.33;4.47;;;;;;;;;;5070403;28;20444;-75
2022/11/10 05:40:31;;;;;;;5.00;3.70;;;;;;;;;;5070430;28;20444;-76
2022/11/10 05:43:00;;;;;;;4.67;4.27;;;;;;;;;;5069937;28;20464;-75
2022/11/10 05:45:28;;;;;;;7.93;3.70;;;;;;;;;;5071347;28;20451;-75
2022/11/10 05:47:56;;;;;;;4.40;3.97;;;;;;;;;;5072035;28;20456;-75
2022/11/10 05:50:23;;;;;;;7.30;4.47;;;;;;;;;;5054336;28;20470;-75
2022/11/10 05:52:51;;;;;;;4.00;3.70;;;;;;;;;;5069823;28;21000;-75
2022/11/10 05:55:19;;;;;;;5.50;4.00;;;;;;;;;;5070138;28;20433;-75
2022/11/10 05:57:47;;;;;;;6.33;4.20;;;;;;;;;;5070105;28;20565;-75
2022/11/10 06:00:16;;;;;;;7.23;5.93;;;;;;;;;;5071827;28;20798;-75
2022/11/10 06:02:44;;;;;;;5.27;4.87;;;;;;;;;;5072004;28;20541;-75
2022/11/10 06:05:11;;;;;;;7.47;4.20;;;;;;;;;;5070976;28;20449;-75
2022/11/10 06:07:39;;;;;;;6.70;4.17;;;;;;;;;;5072817;28;20444;-75
2022/11/10 06:10:06;;;;;;;5.30;4.80;;;;;;;;;;5071734;28;20444;-75
2022/11/10 06:12:33;;;;;;;9.90;4.67;;;;;;;;;;5070252;28;20476;-75
2022/11/10 06:15:01;;;;;;;4.50;4.10;;;;;;;;;;5070079;28;20444;-75
2022/11/10 06:17:30;;;;;;;6.50;4.10;;;;;;;;;;5070242;28;20447;-75
2022/11/10 06:19:57;;;;;;;9.17;5.67;;;;;;;;;;5070327;28;20444;-75
2022/11/10 06:22:24;;;;;;;5.53;5.03;;;;;;;;;;5070352;28;20461;-74
2022/11/10 06:24:51;;;;;;;6.77;4.50;;;;;;;;;;5069928;28;20963;-74
2022/11/10 06:27:18;;;;;;;5.17;4.27;;;;;;;;;;5070126;28;20445;-75
2022/11/10 06:29:45;;;;;;;8.83;4.23;;;;;;;;;;5070113;28;20448;-74
2022/11/10 06:32:12;;;;;;;8.20;4.47;;;;;;;;;;5070195;28;20496;-75
2022/11/10 06:34:41;;;;;;;6.13;4.00;;;;;;;;;;5070385;28;20445;-75
2022/11/10 06:37:08;;;;;;;7.70;4.10;;;;;;;;;;5070468;28;20448;-75
2022/11/10 06:39:35;;;;;;;9.63;5.53;;;;;;;;;;5070437;28;20448;-75
2022/11/10 06:42:02;;;;;;;6.60;4.73;;;;;;;;;;5069761;28;20447;-75
2022/11/10 06:44:29;;;;;;;10.10;5.50;;;;;;;;;;5071185;28;20444;-74
2022/11/10 06:46:56;;;;;;;8.27;3.97;;;;;;;;;;5078247;28;20436;-75
2022/11/10 06:49:23;;;;;;;8.90;4.77;;;;;;;;;;5078766;28;20445;-75
2022/11/10 06:51:52;;;;;;;9.00;4.63;;;;;;;;;;5078553;28;20448;-75
2022/11/10 06:54:19;;;;;;;7.57;4.80;;;;;;;;;;5078711;28;20994;-75
2022/11/10 06:56:46;;;;;;;13.40;5.73;;;;;;;;;;5078002;28;20444;-75
2022/11/10 06:59:13;;;;;;;9.13;4.73;;;;;;;;;;5076876;28;21087;-76
2022/11/10 07:01:40;;;;;;;10.30;7.90;;;;;;;;;;5073089;28;20454;-75
2022/11/10 07:04:07;;;;;;;5.23;4.73;;;;;;;;;;5072893;28;20491;-75
2022/11/10 07:06:34;;;;;;;6.43;4.90;;;;;;;;;;5072467;28;20436;-75
2022/11/10 07:09:02;;;;;;;7.10;5.40;;;;;;;;;;5072616;28;20515;-76
2022/11/10 07:11:29;;;;;;;9.60;6.30;;;;;;;;;;5072854;28;20480;-75
2022/11/10 07:13:57;;;;;;;5.87;4.70;;;;;;;;;;5071851;28;21003;-76
2022/11/10 07:16:24;;;;;;;7.53;5.77;;;;;;;;;;5072760;28;20440;-76
2022/11/10 07:18:51;;;;;;;5.93;5.33;;;;;;;;;;5072595;28;20805;-75
2022/11/10 07:21:18;;;;;;;8.97;5.50;;;;;;;;;;5072684;28;20514;-76
2022/11/10 07:23:45;;;;;;;7.23;4.87;;;;;;;;;;5071809;28;20555;-75
2022/11/10 07:26:14;;;;;;;7.07;5.60;;;;;;;;;;5072208;28;20460;-76
2022/11/10 07:28:41;;;;;;;5.27;4.77;;;;;;;;;;5072095;28;20445;-76
2022/11/10 07:31:08;;;;;;;8.37;4.80;;;;;;;;;;5071649;28;20974;-76
2022/11/10 07:33:35;;;;;;;6.53;4.70;;;;;;;;;;5070985;28;20484;-75
2022/11/10 07:36:03;;;;;;;11.73;4.57;;;;;;;;;;5060884;28;20440;-75
2022/11/10 07:38:30;;;;;;;6.87;4.00;;;;;;;;;;5071847;28;20440;-75
2022/11/10 07:40:57;;;;;;;4.50;4.00;;;;;;;;;;5071657;28;20441;-76
2022/11/10 07:43:26;;;;;;;7.20;4.20;;;;;;;;;;5067143;28;20457;-75
2022/11/10 07:45:53;;;;;;;6.27;4.43;;;;;;;;;;5059255;28;20963;-75
2022/11/10 07:48:20;;;;;;;4.63;3.50;;;;;;;;;;5071628;28;20460;-77
2022/11/10 07:50:48;;;;;;;6.50;4.40;;;;;;;;;;5071339;28;20445;-76
2022/11/10 07:53:15;;;;;;;6.97;3.90;;;;;;;;;;5071484;28;20488;-75
2022/11/10 07:55:43;;;;;;;3.70;3.33;;;;;;;;;;5071574;28;20444;-75
2022/11/10 07:58:10;;;;;;;5.80;3.90;;;;;;;;;;5071582;28;20490;-75
2022/11/10 08:00:39;;;;;;;5.60;4.40;;;;;;;;;;5071112;28;20441;-76
2022/11/10 08:03:07;;;;;;;5.93;3.73;;;;;;;;;;5072112;28;20464;-76
2022/11/10 08:05:35;;;;;;;7.50;3.67;;;;;;;;;;5072439;28;20448;-76
2022/11/10 08:08:02;;;;;;;3.83;3.53;;;;;;;;;;5074457;28;21235;-74
2022/11/10 08:10:29;;;;;;;5.20;4.00;;;;;;;;;;5074755;28;20451;-75
2022/11/10 08:12:56;;;;;;;6.27;3.80;;;;;;;;;;5063768;28;20473;-76
2022/11/10 08:15:23;;;;;;;5.00;3.97;;;;;;;;;;5051722;28;20453;-77
2022/11/10 08:17:52;;;;;;;4.70;3.60;;;;;;;;;;5051906;28;20446;-76
2022/11/10 08:20:19;;;;;;;3.80;3.43;;;;;;;;;;5051767;28;20445;-75
2022/11/10 08:22:46;;;;;;;5.33;3.70;;;;;;;;;;5051186;28;20461;-76
2022/11/10 08:25:13;;;;;;;3.83;3.50;;;;;;;;;;5051963;28;20454;-76
2022/11/10 08:27:40;;;;;;;13.03;8.20;;;;;;;;;;5051250;28;20453;-75
2022/11/10 08:30:08;;;;;;;6.33;4.07;;;;;;;;;;5053969;28;20448;-76
2022/11/10 08:32:35;;;;;;;4.33;3.93;;;;;;;;;;5054503;28;20837;-76
2022/11/10 08:35:04;;;;;;;13.83;12.23;;;;;;;;;;5057835;28;20449;-76
2022/11/10 08:37:31;;;;;;;8.43;4.33;;;;;;;;;;5056360;28;20445;-76
2022/11/10 08:39:58;;;;;;;5.63;3.60;;;;;;;;;;5055847;28;20452;-76
2022/11/10 08:42:25;;;;;;;4.03;3.60;;;;;;;;;;5053840;28;20469;-77
2022/11/10 08:44:52;;;;;;;3.03;2.80;;;;;;;;;;5059210;28;20445;-75
2022/11/10 08:47:19;;;;;;;5.00;4.50;;;;;;;;;;5057142;28;20445;-75
2022/11/10 08:49:46;;;;;;;9.43;4.20;;;;;;;;;;5057862;28;20445;-75
2022/11/10 08:52:15;;;;;;;5.27;3.20;;;;;;;;;;5053513;28;20949;-76
2022/11/10 08:54:42;;;;;;;2.87;2.57;;;;;;;;;;5052043;28;20452;-75
2022/11/10 08:57:09;;;;;;;7.83;6.73;;;;;;;;;;5053806;28;20453;-78
2022/11/10 08:59:36;;;;;;;4.93;3.30;;;;;;;;;;5052027;28;20480;-76
2022/11/10 09:02:03;;;;;;;2.83;2.10;;;;;;;;;;5054359;28;20437;-77
2022/11/10 09:04:30;;;;;;;5.37;2.33;;;;;;;;;;5054256;28;20452;-74
2022/11/10 09:06:58;;;;;;;6.90;2.10;;;;;;;;;;5052805;28;20447;-76
2022/11/10 09:09:26;;;;;;;5.60;1.80;;;;;;;;;;5066373;28;20456;-76
2022/11/10 09:11:53;;;;;;;4.83;1.70;;;;;;;;;;5072672;28;20447;-74
2022/11/10 09:14:21;;;;;;;3.47;1.43;;;;;;;;;;5074588;28;20484;-74
2022/11/10 09:16:48;;;;;;;4.73;1.60;;;;;;;;;;5075261;28;20445;-76
2022/11/10 09:19:15;;;;;;;2.43;1.20;;;;;;;;;;5073698;28;20447;-75
2022/11/10 09:21:42;;;;;;;3.10;1.80;;;;;;;;;;5078965;28;20456;-76
2022/11/10 09:24:09;;;;;;;3.50;1.60;;;;;;;;;;5078302;28;20485;-76
2022/11/10 09:26:38;;;;;;;3.40;1.53;;;;;;;;;;5074812;28;20444;-76
2022/11/10 09:29:05;;;;;;;3.00;1.23;;;;;;;;;;5072442;28;20535;-75
2022/11/10 09:31:32;;;;;;;2.00;1.40;;;;;;;;;;5065540;28;20442;-75
2022/11/10 09:33:59;;;;;;;4.33;1.40;;;;;;;;;;5075779;28;20626;-75
2022/11/10 09:36:26;;;;;;;2.60;1.40;;;;;;;;;;5072557;28;20646;-75
2022/11/10 09:38:53;;;;;;;4.50;1.20;;;;;;;;;;5072308;28;20445;-76
2022/11/10 09:41:20;;;;;;;4.90;1.07;;;;;;;;;;5071074;28;20450;-75
2022/11/10 09:43:52;;;;;;;2.80;1.20;;;;;;;;;;5064111;28;20468;-75
2022/11/10 09:46:24;;;;;;;2.00;1.50;;;;;;;;;;5063237;28;20445;-76
2022/11/10 09:48:52;;;;;;;1.10;1.00;;;;;;;;;;5066650;28;20446;-76
2022/11/10 09:51:22;;;;;;;3.03;1.40;;;;;;;;;;5055770;28;20444;-75
2022/11/10 09:53:50;;;;;;;2.33;1.40;;;;;;;;;;5070123;28;20507;-75
2022/11/10 09:56:19;;;;;;;5.00;1.90;;;;;;;;;;5070358;28;20447;-75
2022/11/10 09:58:48;;;;;;;1.93;1.00;;;;;;;;;;5070603;28;20444;-76
2022/11/10 10:01:19;;;;;;;3.63;1.40;;;;;;;;;;5070362;28;20970;-75
2022/11/10 10:03:49;;;;;;;2.50;1.60;;;;;;;;;;5071136;28;20461;-76
2022/11/10 10:06:21;;;;;;;2.33;1.20;;;;;;;;;;5070814;28;20528;-76
2022/11/10 10:08:56;;;;;;;2.70;1.30;;;;;;;;;;5069842;28;20874;-75
2022/11/10 10:11:30;;;;;;;4.07;2.37;;;;;;;;;;5070025;28;20914;-75
2022/11/10 10:14:08;;;;;;;3.00;1.27;;;;;;;;;;5069571;28;20537;-75
2022/11/10 10:16:37;;;;;;;4.53;1.63;;;;;;;;;;5063963;28;20437;-75
2022/11/10 10:19:07;;;;;;;4.60;1.87;;;;;;;;;;5070404;28;20947;-76
2022/11/10 10:21:40;;;;;;;3.37;1.40;;;;;;;;;;5070491;28;20444;-75
2022/11/10 10:24:11;;;;;;;4.07;1.23;;;;;;;;;;5073603;28;20471;-76
2022/11/10 10:26:39;;;;;;;3.40;1.33;;;;;;;;;;5074996;28;20467;-75
2022/11/10 10:29:10;;;;;;;1.43;1.33;;;;;;;;;;5076017;28;20463;-76
2022/11/10 10:31:41;;;;;;;1.90;1.27;;;;;;;;;;5075764;28;20440;-75
2022/11/10 10:34:12;;;;;;;2.20;1.23;;;;;;;;;;5074706;28;20480;-76
2022/11/10 10:36:39;;;;;;;1.90;1.20;;;;;;;;;;5075073;28;20421;-75
2022/11/10 10:39:08;;;;;;;4.23;1.60;;;;;;;;;;5074593;28;20444;-75
2022/11/10 10:41:37;;;;;;;2.43;1.23;;;;;;;;;;5075200;28;20440;-76
2022/11/10 10:44:11;;;;;;;2.23;1.30;;;;;;;;;;5074429;28;20464;-76
2022/11/10 10:46:43;;;;;;;2.27;1.27;;;;;;;;;;5075030;28;20858;-76
2022/11/10 10:49:16;;;;;;;1.70;1.10;;;;;;;;;;5075278;28;20744;-75
2022/11/10 10:51:43;;;;;;;2.00;1.20;;;;;;;;;;5073608;28;20451;-75
2022/11/10 10:54:23;;;;;;;2.30;1.10;;;;;;;;;;5073178;28;20476;-76
2022/11/10 10:56:50;;;;;;;2.00;1.10;;;;;;;;;;5073251;28;20432;-76
2022/11/10 10:59:19;;;;;;;1.97;1.30;;;;;;;;;;5072965;28;20971;-76
2022/11/10 11:01:48;;;;;;;1.83;1.10;;;;;;;;;;5073196;28;20803;-75
2022/11/10 11:04:28;;;;;;;2.20;1.40;;;;;;;;;;5072576;28;20968;-75
2022/11/10 11:06:57;;;;;;;3.60;1.60;;;;;;;;;;5073035;28;20436;-76
2022/11/10 11:09:25;;;;;;;4.20;1.40;;;;;;;;;;5073584;28;20502;-77
2022/11/10 11:12:00;;;;;;;2.17;1.40;;;;;;;;;;5075066;28;20441;-76
2022/11/10 11:14:28;;;;;;;2.33;1.70;;;;;;;;;;5074039;28;20460;-75
2022/11/10 11:16:57;;;;;;;3.03;1.57;;;;;;;;;;5073854;28;20467;-76
2022/11/10 11:19:25;;;;;;;2.70;1.17;;;;;;;;;;5053834;28;20764;-76
2022/11/10 11:21:57;;;;;;;1.90;1.43;;;;;;;;;;5053238;28;20438;-75
2022/11/10 11:24:28;;;;;;;2.63;1.33;;;;;;;;;;5057917;28;20464;-75
2022/11/10 11:26:59;;;;;;;1.70;1.17;;;;;;;;;;5072594;28;20443;-76
2022/11/10 11:29:30;;;;;;;2.30;1.27;;;;;;;;;;5065709;28;20933;-75
2022/11/10 11:32:05;;;;;;;2.90;1.33;;;;;;;;;;5073282;28;20833;-75
2022/11/10 11:34:39;;;;;;;1.60;1.00;;;;;;;;;;5072321;28;21078;-76
2022/11/10 11:37:10;;;;;;;3.57;1.40;;;;;;;;;;5072941;28;20786;-76
2022/11/10 11:39:42;;;;;;;3.57;0.87;;;;;;;;;;5073982;28;21001;-76
2022/11/10 11:42:14;;;;;;;3.77;1.50;;;;;;;;;;5070752;28;20490;-75
2022/11/10 11:45:05;;;;;;;2.10;1.37;;;;;;;;;;5073702;28;20437;-75
2022/11/10 11:47:38;;;;;;;3.67;1.20;;;;;;;;;;5042080;28;20449;-75
2022/11/10 11:50:22;;;;;;;2.37;1.40;;;;;;;;;;5052595;28;20441;-76
2022/11/10 11:52:55;;;;;;;3.27;1.30;;;;;;;;;;5051890;28;20457;-76
2022/11/10 11:55:29;;;;;;;3.27;1.00;;;;;;;;;;5056687;28;20456;-75
2022/11/10 11:58:05;;;;;;;1.63;1.20;;;;;;;;;;5073245;28;20532;-76
2022/11/10 12:00:36;;;;;;;1.90;1.17;;;;;;;;;;5057762;28;20459;-75
2022/11/10 12:03:27;;;;;;;2.67;1.30;;;;;;;;;;5072271;28;20467;-75
2022/11/10 12:06:02;;;;;;;1.23;1.13;;;;;;;;;;5057277;28;20441;-76
2022/11/10 12:08:34;;;;;;;4.80;1.17;;;;;;;;;;5064237;28;20779;-75
2022/11/10 12:11:04;;;;;;;1.77;1.17;;;;;;;;;;5071770;28;20802;-75
2022/11/10 12:13:37;;;;;;;1.70;0.83;;;;;;;;;;5071487;28;20507;-76
2022/11/10 12:16:09;;;;;;;2.90;1.30;;;;;;;;;;5071220;28;20444;-75
2022/11/10 12:18:37;;;;;;;4.10;1.30;;;;;;;;;;5071565;28;20437;-76
2022/11/10 12:21:14;;;;;;;3.13;1.30;;;;;;;;;;5071576;28;20440;-76
2022/11/10 12:23:49;;;;;;;2.27;1.23;;;;;;;;;;5071372;28;20448;-76
2022/11/10 12:26:22;;;;;;;2.73;1.30;;;;;;;;;;5071576;28;20463;-77
2022/11/10 12:28:52;;;;;;;1.80;1.07;;;;;;;;;;5071138;28;20433;-75
2022/11/10 12:31:22;;;;;;;4.17;1.03;;;;;;;;;;5070983;28;20444;-76
2022/11/10 12:33:50;;;;;;;2.50;1.50;;;;;;;;;;5071229;28;20583;-76
2022/11/10 12:36:21;;;;;;;2.47;1.40;;;;;;;;;;5071129;28;20940;-74
2022/11/10 12:38:52;;;;;;;2.63;1.47;;;;;;;;;;5071502;28;20429;-76
2022/11/10 12:41:20;;;;;;;3.37;1.37;;;;;;;;;;5071441;28;20490;-76
2022/11/10 12:43:52;;;;;;;3.00;1.47;;;;;;;;;;5069670;28;20468;-75
2022/11/10 12:46:19;;;;;;;1.63;1.10;;;;;;;;;;5069539;28;20449;-75
2022/11/10 12:48:54;;;;;;;2.10;1.20;;;;;;;;;;5070428;28;20445;-74
2022/11/10 12:51:25;;;;;;;2.20;0.90;;;;;;;;;;5070932;28;20470;-75
2022/11/10 12:53:53;;;;;;;1.83;1.10;;;;;;;;;;5070728;28;20484;-77
2022/11/10 12:56:25;;;;;;;3.00;1.20;;;;;;;;;;5071314;28;20455;-76
2022/11/10 12:59:13;;;;;;;2.10;1.30;;;;;;;;;;5070821;28;20441;-77
2022/11/10 13:01:43;;;;;;;1.87;1.40;;;;;;;;;;5071203;28;20737;-76
2022/11/10 13:04:14;;;;;;;2.60;1.33;;;;;;;;;;5070578;28;20487;-76
2022/11/10 13:06:49;;;;;;;1.17;0.90;;;;;;;;;;5071141;28;20948;-74
2022/11/10 13:09:23;;;;;;;1.80;1.00;;;;;;;;;;5071513;28;20446;-75
2022/11/10 13:12:04;;;;;;;1.30;1.20;;;;;;;;;;5070697;28;20439;-75
2022/11/10 13:14:32;;;;;;;1.90;1.10;;;;;;;;;;5050445;28;20469;-75
2022/11/10 13:16:59;;;;;;;2.50;1.07;;;;;;;;;;5050795;28;20449;-75
2022/11/10 13:19:44;;;;;;;3.03;1.60;;;;;;;;;;5050417;28;20450;-76
2022/11/10 13:22:28;;;;;;;1.27;1.10;;;;;;;;;;5050494;28;20445;-76
2022/11/10 13:25:22;;;;;;;1.90;1.33;;;;;;;;;;5050627;28;20410;-76
2022/11/10 13:27:52;;;;;;;4.07;1.47;;;;;;;;;;5050161;28;20452;-75
2022/11/10 13:30:34;;;;;;;2.70;1.30;;;;;;;;;;5051216;28;20450;-76
2022/11/10 13:33:16;;;;;;;1.47;1.20;;;;;;;;;;5049996;28;20810;-77
2022/11/10 13:35:54;;;;;;;3.70;2.90;;;;;;;;;;5050263;28;20481;-76
2022/11/10 13:38:34;;;;;;;1.80;1.20;;;;;;;;;;5050379;28;20445;-76
2022/11/10 13:41:16;;;;;;;2.63;1.37;;;;;;;;;;5050371;28;21020;-76
2022/11/10 13:43:49;;;;;;;2.40;1.10;;;;;;;;;;5048014;28;20477;-75
2022/11/10 13:46:17;;;;;;;2.20;1.13;;;;;;;;;;5050502;28;20438;-77
2022/11/10 13:48:55;;;;;;;4.67;1.70;;;;;;;;;;5050438;28;21055;-76
2022/11/10 13:51:27;;;;;;;3.80;1.37;;;;;;;;;;5050154;28;20441;-76
2022/11/10 13:54:01;;;;;;;3.33;1.30;;;;;;;;;;5050208;28;20833;-76
2022/11/10 13:56:37;;;;;;;3.20;1.20;;;;;;;;;;5051631;28;20436;-76
2022/11/10 13:59:17;;;;;;;1.07;0.80;;;;;;;;;;5055037;28;20441;-75
2022/11/10 14:01:44;;;;;;;2.80;1.43;;;;;;;;;;5054604;28;20675;-75
2022/11/10 14:04:32;;;;;;;1.60;1.50;;;;;;;;;;5053719;28;20631;-75
2022/11/10 14:07:00;;;;;;;2.43;1.47;;;;;;;;;;5054162;28;21060;-75
2022/11/10 14:09:30;;;;;;;1.67;1.07;;;;;;;;;;5053946;28;20452;-74
2022/11/10 14:11:59;;;;;;;1.73;1.20;;;;;;;;;;5054858;28;20455;-75
2022/11/10 14:14:29;;;;;;;3.03;1.30;;;;;;;;;;5053803;28;20500;-75
2022/11/10 14:16:56;;;;;;;4.53;1.20;;;;;;;;;;5053951;28;20437;-75
2022/11/10 14:19:32;;;;;;;4.17;1.10;;;;;;;;;;5053802;28;20457;-76
2022/11/10 14:22:03;;;;;;;1.13;1.10;;;;;;;;;;5053725;28;20913;-75
2022/11/10 14:24:34;;;;;;;5.27;1.70;;;;;;;;;;5053705;28;20453;-74
2022/11/10 14:27:05;;;;;;;2.27;1.40;;;;;;;;;;5053799;28;20449;-75
2022/11/10 14:29:34;;;;;;;1.10;1.10;;;;;;;;;;5053476;28;20441;-76
2022/11/10 14:32:02;;;;;;;3.13;2.83;;;;;;;;;;5053235;28;20539;-75
2022/11/10 14:34:29;;;;;;;2.30;1.70;;;;;;;;;;5053416;28;20839;-75
2022/11/10 14:36:57;;;;;;;2.73;1.40;;;;;;;;;;5053684;28;20445;-75
2022/11/10 14:39:28;;;;;;;1.83;1.20;;;;;;;;;;5053378;28;20437;-75
2022/11/10 14:41:56;;;;;;;3.70;1.87;;;;;;;;;;5053920;28;20910;-75
2022/11/10 14:44:24;;;;;;;3.70;1.70;;;;;;;;;;5055155;28;20552;-75
2022/11/10 14:46:51;;;;;;;1.97;1.60;;;;;;;;;;5053713;28;20441;-76
2022/11/10 14:49:22;;;;;;;2.03;1.60;;;;;;;;;;5053575;28;20449;-75
2022/11/10 14:51:50;;;;;;;2.87;1.10;;;;;;;;;;5053529;28;20519;-76
2022/11/10 14:54:19;;;;;;;3.23;1.60;;;;;;;;;;5053164;28;20477;-75
2022/11/10 14:56:47;;;;;;;3.90;1.60;;;;;;;;;;5054563;28;20452;-76
2022/11/10 14:59:21;;;;;;;5.43;1.67;;;;;;;;;;5053511;28;20442;-75
2022/11/10 15:01:50;;;;;;;2.30;1.60;;;;;;;;;;5054589;28;20856;-75
2022/11/10 15:04:17;;;;;;;3.67;1.90;;;;;;;;;;5053970;28;20477;-76
2022/11/10 15:06:44;;;;;;;4.07;1.40;;;;;;;;;;5053630;28;20460;-75
2022/11/10 15:09:15;;;;;;;2.80;1.50;;;;;;;;;;5051531;28;20968;-75
2022/11/10 15:11:48;;;;;;;2.87;1.73;;;;;;;;;;5052293;28;20809;-75
2022/11/10 15:14:39;;;;;;;2.70;1.60;;;;;;;;;;5070025;28;20472;-75